Latest Weather Observations for Redcliffe

IDQ60901

Issued at 12:55 pm EST Monday 21 April 2014 (issued every 10 minutes, with the page automatically refreshed every 10 minutes)

About weather observations | Map of Brisbane area stations | Latest observations for Brisbane area | Other Formats
Station Details ID: 040958 Name: REDCLIFFE Lat: -27.22 Lon: 153.09 Height: 12.6 m
Data from the previous 72 hours. | See also: Recent months at Redcliffe
Date/Time
EST
Tmp

°C
App
Tmp
°C
Dew
Point
°C
Rel
Hum
%
Delta-T

°C
Wind Press
QNH
hPa
Press
MSL
hPa
Rain
since
9 am
mm
Dir
 
Spd
km/h
Gust
km/h
Spd
kts
Gust
kts
21/12:30pm 26.8 25.7 15.2 49 7.0 ENE 15 17 8 9 1019.4 - 0.0
21/12:00pm 26.4 25.2 13.9 46 7.4 ENE 13 17 7 9 1019.9 1019.8 0.0
21/11:30am 26.3 26.2 15.0 49 6.8 E 9 11 5 6 1020.3 - 0.0
21/11:00am 25.9 25.5 15.3 52 6.4 E 11 13 6 7 1020.7 - 0.0
21/10:30am 25.4 24.8 14.5 51 6.5 ESE 11 13 6 7 1021.0 - 0.0
21/10:00am 25.2 24.4 15.2 54 6.0 SSE 13 13 7 7 1021.1 - 0.0
21/09:30am 24.3 23.5 15.0 56 5.6 SSE 13 15 7 8 1021.3 - 0.0
21/09:00am 22.8 22.0 14.1 58 5.1 SSE 11 13 6 7 1021.3 1021.2 0.0
21/08:30am 21.9 21.7 14.8 64 4.2 SSW 9 13 5 7 1021.2 - 0.0
21/08:00am 20.0 19.3 14.4 70 3.3 SW 11 15 6 8 1021.2 - 0.0
21/07:30am 18.3 17.6 14.4 78 2.2 SW 11 13 6 7 1020.8 - 0.0
21/07:00am 17.1 16.5 14.6 85 1.4 SW 11 13 6 7 1020.5 - 0.0
21/06:30am 16.4 15.3 14.4 88 1.1 SW 13 17 7 9 1020.2 - 0.0
21/06:00am 16.2 15.8 14.0 87 1.2 WSW 9 13 5 7 1019.8 1019.7 0.0
21/05:30am 16.4 15.3 14.2 87 1.3 WSW 13 13 7 7 1019.5 - 0.0
21/05:00am 16.5 16.1 14.2 86 1.3 WSW 9 11 5 6 1019.2 - 0.0
21/04:30am 16.7 16.3 14.2 85 1.4 WSW 9 11 5 6 1018.9 - 0.0
21/04:00am 16.6 16.5 13.9 84 1.5 WSW 7 11 4 6 1018.7 - 0.0
21/03:30am 16.8 16.8 14.1 84 1.5 WSW 7 9 4 5 1018.3 - 0.0
21/03:00am 17.0 17.3 14.5 85 1.4 SW 6 7 3 4 1018.2 1018.1 0.0
21/02:30am 17.6 18.1 14.9 84 1.6 W 6 7 3 4 1018.2 - 0.0
21/02:00am 17.9 18.6 14.4 80 2.0 W 4 7 2 4 1018.2 - 0.0
21/01:30am 18.3 18.5 14.8 80 2.0 WNW 7 9 4 5 1018.4 - 0.0
21/01:00am 18.4 18.3 14.9 80 2.0 WNW 9 11 5 6 1018.5 - 0.0
21/12:30am 18.7 18.4 14.4 76 2.5 WNW 9 11 5 6 1018.6 - 0.0
21/12:00am 19.1 19.3 14.8 76 2.5 NW 7 11 4 6 1018.7 1018.6 0.0
 
Date/Time
EST
Tmp

°C
App
Tmp
°C
Dew
Point
°C
Rel
Hum
%
Delta-T

°C
Wind Press
QNH
hPa
Press
MSL
hPa
Rain
since
9 am
mm
Dir
 
Spd
km/h
Gust
km/h
Spd
kts
Gust
kts
20/11:30pm 19.0 18.8 14.7 76 2.5 WNW 9 11 5 6 1018.7 - 0.0
20/11:00pm 19.2 19.0 14.7 75 2.6 NW 9 11 5 6 1018.7 - 0.0
20/10:30pm 19.4 19.4 15.3 77 2.4 WNW 9 11 5 6 1018.9 - 0.0
20/10:00pm 19.6 19.6 15.3 76 2.5 NW 9 11 5 6 1018.8 - 0.0
20/09:30pm 19.9 19.9 15.3 75 2.7 NW 9 11 5 6 1018.8 - 0.0
20/09:00pm 20.1 19.9 15.7 76 2.6 WNW 11 13 6 7 1018.6 1018.5 0.0
20/08:30pm 20.5 20.3 15.7 74 2.9 NNW 11 15 6 8 1018.4 - 0.0
20/08:00pm 22.6 22.0 16.6 69 3.7 N 15 17 8 9 1018.2 - 0.0
20/07:30pm 22.5 21.3 16.1 67 3.9 N 17 19 9 10 1018.0 - 0.0
20/07:00pm 22.9 21.4 16.4 67 4.0 N 19 20 10 11 1017.7 - 0.0
20/06:30pm 23.0 21.2 16.1 65 4.2 NNE 20 24 11 13 1017.3 - 0.0
20/06:00pm 23.2 21.0 16.0 64 4.4 NNE 22 26 12 14 1017.0 1016.9 0.0
20/05:30pm 23.4 21.0 15.5 61 4.7 NNE 22 26 12 14 1016.7 - 0.0
20/05:00pm 23.9 21.8 15.1 58 5.3 NNE 20 24 11 13 1016.4 - 0.0
20/04:30pm 24.2 21.5 14.6 55 5.7 NNE 22 24 12 13 1016.0 - 0.0
20/04:00pm 24.5 21.8 14.6 54 5.9 NE 22 26 12 14 1015.9 - 0.0
20/03:30pm 24.9 22.6 14.1 51 6.4 NE 19 22 10 12 1015.9 - 0.0
20/03:00pm 25.3 22.3 11.8 43 7.7 NE 19 20 10 11 1015.9 1015.8 0.0
20/02:30pm 25.8 23.6 14.3 49 6.8 NE 19 20 10 11 1015.8 - 0.0
20/02:00pm 25.8 23.6 13.3 46 7.3 ENE 17 19 9 10 1016.0 - 0.0
20/01:30pm 26.2 25.1 14.3 48 7.1 NE 13 15 7 8 1016.1 - 0.0
20/01:00pm 26.2 24.5 12.6 43 7.9 NE 13 13 7 7 1016.4 - 0.0
20/12:30pm 26.2 24.5 12.3 42 8.0 NE 13 13 7 7 1016.7 - 0.0
20/12:00pm 25.7 24.0 12.5 44 7.6 ENE 13 15 7 8 1017.2 1017.1 0.0
20/11:30am 25.6 24.9 13.1 46 7.3 E 9 11 5 6 1017.6 - 0.0
20/11:00am 25.7 24.9 12.9 45 7.4 SE 9 11 5 6 1018.0 - 0.0
20/10:30am 25.5 25.1 15.2 53 6.2 SSE 11 13 6 7 1018.4 - 0.0
20/10:00am 25.0 24.1 14.8 53 6.1 SSE 13 13 7 7 1018.5 - 0.0
20/09:30am 23.6 22.4 14.0 55 5.6 SSE 13 15 7 8 1018.5 - 0.0
20/09:00am 22.3 21.5 13.9 59 4.9 S 11 13 6 7 1018.4 1018.3 0.0
20/08:30am 20.8 20.3 13.7 64 4.1 SW 9 13 5 7 1018.3 - 0.0
20/08:00am 19.9 18.6 13.8 68 3.5 SW 13 15 7 8 1018.2 - 0.0
20/07:30am 18.0 17.0 13.5 75 2.5 WSW 11 15 6 8 1018.0 - 0.0
20/07:00am 16.8 16.1 13.1 79 2.1 WSW 9 13 5 7 1017.8 - 0.0
20/06:30am 16.0 14.8 12.7 81 1.8 WSW 11 13 6 7 1017.3 - 0.0
20/06:00am 15.7 15.2 12.6 82 1.7 WSW 7 9 4 5 1016.9 1016.8 0.0
20/05:30am 15.9 14.2 12.6 81 1.8 SSW 13 15 7 8 1016.6 - 0.0
20/05:00am 16.0 14.8 12.7 81 1.8 SW 11 13 6 7 1016.3 - 0.0
20/04:30am 16.0 14.8 12.9 82 1.7 SW 11 13 6 7 1016.1 - 0.0
20/04:00am 16.1 14.6 13.0 82 1.7 SW 13 15 7 8 1015.8 - 0.0
20/03:30am 16.0 15.2 12.9 82 1.7 WSW 9 13 5 7 1015.8 - 0.0
20/03:00am 16.0 15.0 12.4 79 2.0 W 9 13 5 7 1015.7 1015.6 0.0
20/02:30am 16.6 16.0 12.4 76 2.3 W 7 9 4 5 1015.7 - 0.0
20/02:00am 16.7 15.3 12.3 75 2.4 W 11 13 6 7 1015.7 - 0.0
20/01:30am 16.8 15.5 12.5 76 2.4 WSW 11 13 6 7 1016.0 - 0.0
20/01:00am 17.1 15.8 12.4 74 2.6 W 11 13 6 7 1016.1 - 0.0
20/12:30am 17.4 16.4 13.3 77 2.3 W 11 15 6 8 1016.4 - 0.0
20/12:00am 17.6 16.4 13.9 79 2.1 WSW 13 15 7 8 1016.5 1016.4 0.0
 
Date/Time
EST
Tmp

°C
App
Tmp
°C
Dew
Point
°C
Rel
Hum
%
Delta-T

°C
Wind Press
QNH
hPa
Press
MSL
hPa
Rain
since
9 am
mm
Dir
 
Spd
km/h
Gust
km/h
Spd
kts
Gust
kts
19/11:30pm 18.0 17.6 14.1 78 2.2 WSW 9 15 5 8 1016.5 - 0.0
19/11:00pm 18.4 17.8 14.5 78 2.3 W 11 15 6 8 1016.6 - 0.0
19/10:30pm 18.9 19.6 14.4 75 2.6 E 4 7 2 4 1016.6 - 0.0
19/10:00pm 19.5 19.6 14.5 73 2.9 E 7 9 4 5 1016.6 - 0.0
19/09:30pm 20.5 20.1 14.2 67 3.7 E 9 11 5 6 1016.4 - 0.0
19/09:00pm 21.1 20.4 14.3 65 4.0 ENE 11 13 6 7 1016.2 1016.1 0.0
19/08:30pm 21.5 20.5 13.4 60 4.7 NE 11 13 6 7 1016.1 - 0.0
19/08:00pm 22.6 21.2 13.4 56 5.3 NE 13 15 7 8 1015.8 - 0.0
19/07:30pm 22.5 20.6 14.1 59 4.9 ENE 17 19 9 10 1015.6 - 0.0
19/07:00pm 22.5 20.2 14.1 59 4.9 ENE 19 24 10 13 1015.1 - 0.0
19/06:30pm 22.8 20.5 14.1 58 5.1 NNE 19 22 10 12 1014.4 - 0.0
19/06:00pm 23.4 20.6 12.7 51 6.1 NNE 19 22 10 12 1014.1 1014.0 0.0
19/05:30pm 23.9 21.6 11.9 47 6.8 NNE 15 17 8 9 1013.9 - 0.0
19/05:00pm 24.6 22.5 11.2 43 7.5 NE 13 15 7 8 1013.6 - 0.0
19/04:30pm 25.4 22.3 8.8 35 9.0 NE 15 17 8 9 1013.3 - 0.0
19/04:00pm 25.9 23.0 9.7 36 8.9 NE 15 17 8 9 1013.1 - 0.0
19/03:30pm 26.2 22.7 8.7 33 9.5 NE 17 19 9 10 1013.1 - 0.0
19/03:00pm 25.9 22.6 9.7 36 8.9 ENE 17 19 9 10 1013.1 1013.0 0.0
19/02:30pm 26.4 23.1 9.7 35 9.2 ENE 17 19 9 10 1013.3 - 0.0
19/02:00pm 26.0 23.4 12.1 42 8.0 NE 17 19 9 10 1013.4 - 0.0
19/01:30pm 26.9 24.3 10.6 36 9.2 NE 15 19 8 10 1013.6 - 0.0
19/01:00pm 26.4 24.2 10.9 38 8.7 E 13 17 7 9 1013.9 - 0.0
19/12:30pm 27.4 23.6 3.8 22 11.8 ESE 13 15 7 8 1014.3 - 0.0
19/12:00pm 27.8 25.5 7.6 28 10.8 ESE 9 13 5 7 1014.8 1014.7 0.0
19/11:30am 26.9 25.2 8.4 31 10.0 ESE 7 9 4 5 1015.3 - 0.0
19/11:00am 26.7 24.9 9.5 34 9.5 SE 9 11 5 6 1016.0 - 0.0
19/10:30am 25.4 23.2 9.3 36 8.8 SSE 11 13 6 7 1016.4 - 0.0
19/10:00am 24.1 21.8 10.4 42 7.6 S 13 15 7 8 1016.7 - 0.0
19/09:30am 23.6 21.6 11.6 47 6.8 S 13 17 7 9 1016.8 - 0.0
19/09:00am 22.1 20.3 9.6 45 6.7 SSE 9 11 5 6 1016.9 1016.8 0.0
19/08:30am 21.3 20.7 12.4 57 5.0 S 7 9 4 5 1016.9 - 0.0
19/08:00am 19.2 18.6 11.7 62 4.1 SW 6 7 3 4 1016.8 - 0.0
19/07:30am 17.4 16.7 11.4 68 3.3 WSW 6 7 3 4 1016.5 - 0.0
19/07:00am 15.5 14.4 11.9 79 2.0 W 9 11 5 6 1016.4 - 0.0
19/06:30am 15.3 16.2 12.8 85 1.4 CALM 0 0 0 0 1016.3 - 0.0
19/06:00am 14.6 13.5 12.1 85 1.4 SW 9 11 5 6 1016.2 1016.1 0.0
19/05:30am 15.1 15.2 12.6 85 1.4 WSW 4 7 2 4 1015.8 - 0.0
19/05:00am 15.1 15.2 12.6 85 1.4 W 4 7 2 4 1015.6 - 0.0
19/04:30am 15.4 15.9 12.9 85 1.4 WNW 2 7 1 4 1015.4 - 0.0
19/04:00am 15.8 15.7 13.3 85 1.4 NNW 6 7 3 4 1015.4 - 0.0
19/03:30am 15.5 14.8 13.2 86 1.3 WSW 9 11 5 6 1015.3 - 0.0
19/03:00am 15.9 15.0 13.7 87 1.2 WSW 11 15 6 8 1015.3 1015.2 0.0
19/02:30am 16.1 15.3 13.9 87 1.2 WSW 11 15 6 8 1015.4 - 0.0
19/02:00am 16.5 16.1 14.2 86 1.3 WSW 9 13 5 7 1015.5 - 0.0
19/01:30am 17.1 16.9 14.7 86 1.4 W 9 13 5 7 1015.6 - 0.0
19/01:00am 17.7 17.7 15.1 85 1.5 WNW 9 11 5 6 1015.6 - 0.0
19/12:30am 18.3 18.5 15.7 85 1.5 WNW 9 11 5 6 1015.7 - 0.0
19/12:00am 19.0 19.7 16.0 83 1.8 NNW 7 9 4 5 1015.7 1015.6 0.0
 
Date/Time
EST
Tmp

°C
App
Tmp
°C
Dew
Point
°C
Rel
Hum
%
Delta-T

°C
Wind Press
QNH
hPa
Press
MSL
hPa
Rain
since
9 am
mm
Dir
 
Spd
km/h
Gust
km/h
Spd
kts
Gust
kts
18/11:30pm 20.1 20.6 16.5 80 2.2 NNW 9 13 5 7 1015.8 - 0.0
18/11:00pm 19.9 20.1 16.7 82 1.9 N 11 15 6 8 1016.0 - 0.0
18/10:30pm 19.7 20.2 16.5 82 1.9 NW 9 11 5 6 1016.1 - 0.0
18/10:00pm 19.7 20.6 16.5 82 1.9 NW 7 9 4 5 1016.2 - 0.0
18/09:30pm 19.9 21.0 16.5 81 2.0 WNW 6 7 3 4 1016.3 - 0.0
18/09:00pm 20.0 20.9 16.6 81 2.0 W 7 9 4 5 1016.0 1015.9 0.0
18/08:30pm 20.7 21.3 16.9 79 2.3 NNW 9 13 5 7 1015.7 - 0.0
18/08:00pm 21.1 21.0 16.9 77 2.6 N 13 17 7 9 1015.6 - 0.0
18/07:30pm 22.0 21.7 17.4 75 2.8 N 15 20 8 11 1015.2 - 0.0
18/07:00pm 22.5 21.2 17.2 72 3.3 N 20 26 11 14 1014.9 - 0.0
18/06:30pm 22.5 20.3 17.0 71 3.4 N 24 26 13 14 1014.4 - 0.0
18/06:00pm 22.7 20.0 16.7 69 3.7 NNE 26 28 14 15 1014.3 1014.2 0.0
18/05:30pm 22.9 20.1 16.4 67 4.0 NNE 26 28 14 15 1014.1 - 0.0
18/05:00pm 23.3 21.2 16.1 64 4.4 NNE 22 26 12 14 1013.9 - 0.0
18/04:30pm 24.0 22.6 15.5 59 5.1 NNE 17 20 9 11 1013.7 - 0.0
18/04:00pm 24.3 22.5 14.4 54 5.9 NE 17 19 9 10 1013.5 - 0.0
18/03:30pm 24.8 22.7 13.7 50 6.5 NE 17 19 9 10 1013.3 - 0.0
18/03:00pm 24.8 22.9 14.3 52 6.2 NE 17 19 9 10 1013.2 1013.1 0.0
18/02:30pm 25.0 23.7 14.8 53 6.1 ENE 15 17 8 9 1013.5 - 0.0
18/02:00pm 25.2 23.8 15.5 55 5.9 ENE 17 19 9 10 1013.6 - 0.0
18/01:30pm 25.2 24.7 15.8 56 5.7 E 13 15 7 8 1013.7 - 0.0
18/01:00pm 24.9 24.7 15.8 57 5.5 ENE 11 13 6 7 1014.1 - 0.0

Latest Capital City Observations: Canberra | Sydney | Melbourne | Brisbane | Adelaide | Perth | Hobart | Darwin

Other Formats:

Comma delimited format used in spreadsheet applications
http://www.bom.gov.au/fwo/IDQ60901/IDQ60901.95591.axf

JavaScript Object Notation format (JSON) in row-major order
http://www.bom.gov.au/fwo/IDQ60901/IDQ60901.95591.json